This is the latest recevied weather packets stored in our database for station/object N0TKN. If no packets are shown the sender has not sent any weather packets the latest 10 day(s).
| Time | Temp. | Humidity | Pressure | Rain* | Wind** | Luminosity | Snow |
|---|---|---|---|---|---|---|---|
| 1777880117 | 17.22° C | 63% | 1007.4 hPa | 0 mm | - | 0 W/m² | - |
| 1777879517 | 16.67° C | 65% | 1007.5 hPa | 0 mm | - | 0 W/m² | - |
| 1777878918 | 16.67° C | 69% | 1007.6 hPa | 0 mm | - | 0 W/m² | - |
| 1777878318 | 17.78° C | 62% | 1007.3 hPa | 0 mm | - | 0 W/m² | - |
| 1777877718 | 18.33° C | 59% | 1007.1 hPa | 0 mm | - | 0 W/m² | - |
| 1777877118 | 18.33° C | 58% | 1007.1 hPa | 0 mm | - | 0 W/m² | - |
| 1777876518 | 18.33° C | 58% | 1007.2 hPa | 0 mm | - | 0 W/m² | - |
| 1777875915 | 18.33° C | 58% | 1007.3 hPa | 0 mm | - | 0 W/m² | - |
| 1777875316 | 18.33° C | 58% | 1007.3 hPa | 0 mm | - | 0 W/m² | - |
| 1777874715 | 18.33° C | 59% | 1007.3 hPa | 0 mm | - | 0 W/m² | - |
| 1777874115 | 18.33° C | 58% | 1007.3 hPa | 0 mm | - | 0 W/m² | - |
| 1777873516 | 17.78° C | 60% | 1007.6 hPa | 0 mm | - | 0 W/m² | - |
| 1777872916 | 18.33° C | 61% | 1007.6 hPa | 0 mm | - | 0 W/m² | - |
| 1777872316 | 18.89° C | 58% | 1007.5 hPa | 0 mm | - | 0 W/m² | - |
| 1777871717 | 18.89° C | 56% | 1007.5 hPa | 0 mm | - | 0 W/m² | - |
| 1777871117 | 18.89° C | 56% | 1007.7 hPa | 0 mm | - | 0 W/m² | - |
| 1777870517 | 18.89° C | 58% | 1008 hPa | 0 mm | - | 0 W/m² | - |
| 1777869917 | 19.44° C | 56% | 1008 hPa | 0 mm | - | 0 W/m² | - |
| 1777869317 | 20° C | 53% | 1008 hPa | 0 mm | - | 0 W/m² | - |
| 1777868717 | 20° C | 52% | 1008 hPa | 0 mm | - | 0 W/m² | - |
| 1777868118 | 20.56° C | 51% | 1008.1 hPa | 0 mm | - | 0 W/m² | - |
| 1777867518 | 20.56° C | 50% | 1008 hPa | 0 mm | - | 0 W/m² | - |
| 1777866918 | 20.56° C | 50% | 1008 hPa | 0 mm | - | 0 W/m² | - |
| 1777866318 | 21.11° C | 49% | 1008 hPa | 0 mm | - | 0 W/m² | - |
| 1777865718 | 21.11° C | 49% | 1008.2 hPa | 0 mm | - | 0 W/m² | - |
* Rain latest hour (hover to see other rain measurements)
** Current wind speed in m/s (hover to see current wind gust speed)